createdAt,value
2022-08-09T00:00:06.142Z,21.05
2022-08-09T00:04:00.635Z,20.97
2022-08-09T00:06:15.554Z,20.89
2022-08-09T00:08:53.374Z,20.82
2022-08-09T00:11:58.690Z,20.93
2022-08-09T00:14:31.149Z,20.99
2022-08-09T00:18:04.270Z,21.01
2022-08-09T00:20:05.142Z,21.02
2022-08-09T00:22:37.063Z,21.00
2022-08-09T00:25:14.301Z,20.99
2022-08-09T00:27:56.469Z,21.04
2022-08-09T00:30:30.539Z,21.05
2022-08-09T00:33:05.595Z,20.93
2022-08-09T00:35:42.859Z,21.07
2022-08-09T00:38:16.150Z,21.02
2022-08-09T00:40:54.923Z,20.86
2022-08-09T00:44:16.910Z,20.68
2022-08-09T00:46:45.293Z,20.57
2022-08-09T00:49:15.372Z,20.41
2022-08-09T00:51:54.446Z,20.45
2022-08-09T00:54:34.969Z,20.54
2022-08-09T00:57:11.059Z,20.38
2022-08-09T00:59:47.112Z,20.55
2022-08-09T01:02:29.270Z,20.67
2022-08-09T01:05:14.202Z,20.49
2022-08-09T01:08:02.691Z,20.33
2022-08-09T01:10:43.466Z,20.42
2022-08-09T01:13:53.208Z,20.37
2022-08-09T01:16:28.739Z,20.30
2022-08-09T01:19:16.903Z,20.47
2022-08-09T01:22:16.296Z,20.58
2022-08-09T01:25:00.904Z,20.64
2022-08-09T01:27:37.243Z,20.68
2022-08-09T01:30:28.657Z,20.67
2022-08-09T01:33:10.067Z,20.48
2022-08-09T01:35:52.216Z,20.01
2022-08-09T01:38:28.709Z,20.11
2022-08-09T01:41:06.155Z,20.35
2022-08-09T01:43:50.640Z,20.52
2022-08-09T01:46:31.658Z,20.58
2022-08-09T01:49:10.494Z,20.54
2022-08-09T01:51:54.464Z,20.34
2022-08-09T01:54:33.904Z,20.19
2022-08-09T01:57:16.548Z,20.13
2022-08-09T01:59:53.289Z,20.20
2022-08-09T02:02:36.292Z,20.23
2022-08-09T02:05:16.122Z,20.22
2022-08-09T02:08:40.414Z,20.19
2022-08-09T02:10:50.958Z,19.95
2022-08-09T02:13:40.177Z,19.91
2022-08-09T02:16:15.977Z,20.06
2022-08-09T02:18:48.479Z,20.16
2022-08-09T02:21:24.150Z,20.11
2022-08-09T02:24:04.714Z,20.10
2022-08-09T02:26:39.130Z,20.24
2022-08-09T02:29:21.825Z,20.30
2022-08-09T02:32:01.356Z,20.31
2022-08-09T02:34:41.704Z,20.25
2022-08-09T02:37:31.784Z,20.35
2022-08-09T02:40:11.045Z,20.33
2022-08-09T02:42:51.082Z,20.16
2022-08-09T02:45:30.054Z,20.02
2022-08-09T02:48:12.313Z,20.00
2022-08-09T02:51:03.359Z,20.16
2022-08-09T02:54:00.507Z,20.21
2022-08-09T02:56:36.514Z,20.30
2022-08-09T02:59:12.842Z,20.34
2022-08-09T03:02:06.234Z,20.28
2022-08-09T03:04:40.874Z,20.26
2022-08-09T03:07:14.667Z,20.26
2022-08-09T03:09:54.390Z,20.34
2022-08-09T03:12:30.493Z,20.40
2022-08-09T03:15:04.816Z,20.39
2022-08-09T03:17:38.415Z,20.39
2022-08-09T03:20:11.160Z,20.50
2022-08-09T03:22:52.622Z,20.55
2022-08-09T03:25:58.537Z,20.61
2022-08-09T03:28:25.776Z,20.61
2022-08-09T03:30:59.365Z,20.65
2022-08-09T03:33:54.395Z,20.57
2022-08-09T03:36:29.415Z,20.37
2022-08-09T03:39:02.854Z,20.46
2022-08-09T03:41:45.754Z,20.52
2022-08-09T03:44:21.699Z,20.60
2022-08-09T03:46:59.651Z,20.61
2022-08-09T03:49:35.801Z,20.57
2022-08-09T03:52:09.172Z,20.53
2022-08-09T03:54:45.138Z,20.58
2022-08-09T03:57:20.453Z,20.46
2022-08-09T04:00:00.623Z,20.52
2022-08-09T04:02:36.037Z,20.54
2022-08-09T04:05:26.979Z,20.42
2022-08-09T04:07:59.839Z,20.17
2022-08-09T04:10:33.232Z,20.18
2022-08-09T04:13:13.575Z,20.43
2022-08-09T04:16:18.667Z,20.56
2022-08-09T04:18:45.888Z,20.53
2022-08-09T04:21:19.056Z,20.55
2022-08-09T04:23:53.634Z,20.54
2022-08-09T04:26:37.717Z,20.56
2022-08-09T04:29:15.667Z,20.47
2022-08-09T04:31:48.112Z,20.33
2022-08-09T04:34:30.772Z,20.44
2022-08-09T04:37:04.352Z,20.54
2022-08-09T04:39:40.885Z,20.58
2022-08-09T04:42:15.920Z,20.39
2022-08-09T04:44:50.413Z,20.23
2022-08-09T04:47:25.536Z,20.35
2022-08-09T04:50:05.430Z,20.48
2022-08-09T04:52:42.191Z,20.61
2022-08-09T04:55:15.520Z,20.69
2022-08-09T04:57:59.464Z,20.64
2022-08-09T05:00:41.009Z,20.60
2022-08-09T05:03:41.108Z,20.75
2022-08-09T05:06:08.150Z,20.81
2022-08-09T05:08:43.891Z,20.86
2022-08-09T05:11:19.995Z,20.90
2022-08-09T05:13:55.039Z,21.04
2022-08-09T05:16:31.579Z,21.09
2022-08-09T05:19:04.239Z,21.09
2022-08-09T05:21:47.183Z,21.00
2022-08-09T05:24:27.534Z,20.67
2022-08-09T05:26:59.598Z,20.49
2022-08-09T05:29:35.519Z,20.63
2022-08-09T05:32:08.485Z,20.77
2022-08-09T05:34:42.900Z,20.78
2022-08-09T05:37:18.292Z,20.89
2022-08-09T05:39:50.586Z,20.86
2022-08-09T05:42:28.045Z,20.91
2022-08-09T05:45:06.081Z,21.00
2022-08-09T05:47:45.511Z,21.11
2022-08-09T05:50:50.476Z,21.15
2022-08-09T05:53:21.630Z,21.21
2022-08-09T05:56:04.114Z,21.26
2022-08-09T05:58:37.025Z,21.38
2022-08-09T06:01:09.679Z,21.37
2022-08-09T06:03:58.175Z,21.37
2022-08-09T06:06:31.096Z,21.34
2022-08-09T06:09:09.893Z,21.37
2022-08-09T06:11:57.774Z,21.39
2022-08-09T06:14:30.108Z,21.48
2022-08-09T06:17:09.064Z,21.55
2022-08-09T06:19:42.087Z,21.60
2022-08-09T06:22:15.740Z,21.63
2022-08-09T06:24:47.715Z,21.59
2022-08-09T06:27:21.003Z,21.58
2022-08-09T06:30:04.573Z,21.64
2022-08-09T06:33:00.608Z,21.78
2022-08-09T06:35:35.798Z,21.82
2022-08-09T06:38:36.336Z,21.68
2022-08-09T06:41:18.709Z,21.84
2022-08-09T06:43:53.100Z,21.87
2022-08-09T06:46:40.347Z,21.90
2022-08-09T06:49:16.214Z,21.99
2022-08-09T06:52:01.245Z,21.92
2022-08-09T06:54:33.120Z,21.86
2022-08-09T06:57:04.915Z,21.79
2022-08-09T07:00:57.405Z,21.73
2022-08-09T07:02:32.415Z,21.72
2022-08-09T07:05:06.251Z,21.67
2022-08-09T07:08:00.670Z,21.86
2022-08-09T07:10:32.501Z,21.93
2022-08-09T07:13:27.586Z,21.88
2022-08-09T07:16:42.655Z,21.95
2022-08-09T07:18:50.174Z,22.06
2022-08-09T07:21:22.036Z,22.01
2022-08-09T07:23:58.158Z,22.06
2022-08-09T07:26:30.326Z,22.14
2022-08-09T07:29:12.214Z,22.24
2022-08-09T07:31:48.097Z,22.30
2022-08-09T07:34:20.535Z,22.34
2022-08-09T07:36:53.515Z,22.48
2022-08-09T07:39:41.084Z,22.60
2022-08-09T07:42:14.316Z,22.71
2022-08-09T07:44:51.574Z,22.72
2022-08-09T07:47:25.185Z,22.62
2022-08-09T07:50:05.314Z,22.64
2022-08-09T07:52:41.402Z,22.49
2022-08-09T07:55:15.401Z,22.65
2022-08-09T07:57:49.021Z,22.72
2022-08-09T08:00:35.983Z,22.71
2022-08-09T08:03:09.833Z,22.80
2022-08-09T08:05:57.559Z,22.90
2022-08-09T08:09:00.596Z,22.97
2022-08-09T08:12:10.577Z,23.04
2022-08-09T08:14:14.529Z,22.81
2022-08-09T08:17:00.553Z,22.85
2022-08-09T08:19:32.893Z,22.99
2022-08-09T08:22:05.609Z,23.04
2022-08-09T08:24:40.038Z,23.11
2022-08-09T08:27:17.078Z,23.08
2022-08-09T08:29:52.280Z,23.11
2022-08-09T08:32:29.458Z,23.01
2022-08-09T08:35:02.758Z,23.08
2022-08-09T08:37:41.315Z,23.19
2022-08-09T08:40:26.918Z,23.35
2022-08-09T08:43:02.014Z,23.30
2022-08-09T08:45:43.239Z,23.29
2022-08-09T08:48:29.154Z,23.34
2022-08-09T08:51:04.185Z,23.36
2022-08-09T08:53:37.414Z,23.32
2022-08-09T08:56:13.650Z,23.24
2022-08-09T08:58:57.170Z,23.31
2022-08-09T09:01:44.931Z,23.51
2022-08-09T09:04:26.666Z,23.64
2022-08-09T09:07:02.448Z,23.58
2022-08-09T09:10:01.806Z,23.72
2022-08-09T09:12:34.157Z,23.82
2022-08-09T09:15:09.279Z,23.54
2022-08-09T09:17:48.960Z,23.65
2022-08-09T09:20:25.844Z,23.64
2022-08-09T09:23:01.855Z,23.80
2022-08-09T09:26:04.056Z,23.86
2022-08-09T09:29:02.924Z,24.05
2022-08-09T09:32:04.065Z,24.21
2022-08-09T09:34:19.514Z,24.11
2022-08-09T09:36:53.917Z,24.16
2022-08-09T09:39:55.177Z,24.37
2022-08-09T09:42:36.341Z,24.62
2022-08-09T09:45:10.658Z,24.73
2022-08-09T09:47:56.667Z,24.90
2022-08-09T09:50:49.604Z,25.02
2022-08-09T09:53:43.827Z,25.11
2022-08-09T09:56:19.675Z,25.19
2022-08-09T09:59:03.566Z,25.29
2022-08-09T10:01:38.225Z,25.26
2022-08-09T10:04:22.574Z,25.10
2022-08-09T10:07:03.657Z,25.31
2022-08-09T10:09:54.825Z,25.33
2022-08-09T10:12:29.570Z,25.30
2022-08-09T10:15:17.531Z,25.39
2022-08-09T10:18:14.033Z,25.36
2022-08-09T10:20:48.754Z,25.48
2022-08-09T10:23:24.288Z,25.69
2022-08-09T10:26:07.497Z,25.91
2022-08-09T10:28:48.736Z,26.01
2022-08-09T10:34:33.474Z,26.36
2022-08-09T10:37:09.678Z,26.43
2022-08-09T10:39:49.439Z,26.38
2022-08-09T10:42:26.904Z,26.54
2022-08-09T10:45:10.719Z,26.88
2022-08-09T10:48:19.248Z,26.88
2022-08-09T10:51:12.158Z,27.12
2022-08-09T10:54:04.883Z,27.35
2022-08-09T10:56:39.099Z,27.38
2022-08-09T10:59:31.762Z,27.21
2022-08-09T11:03:15.572Z,26.99
2022-08-09T11:05:31.110Z,27.49
2022-08-09T11:08:34.034Z,27.90
2022-08-09T11:11:15.665Z,27.81
2022-08-09T11:13:53.693Z,27.43
2022-08-09T11:16:37.345Z,27.03
2022-08-09T11:19:11.397Z,26.70
2022-08-09T11:22:05.300Z,26.44
2022-08-09T11:25:10.289Z,26.37
2022-08-09T11:28:04.069Z,26.48
2022-08-09T11:30:37.811Z,26.35
2022-08-09T11:33:26.405Z,26.27
2022-08-09T11:36:00.302Z,26.16
2022-08-09T11:38:34.965Z,26.21
2022-08-09T11:41:37.972Z,26.28
2022-08-09T11:44:13.553Z,26.23
2022-08-09T11:46:57.000Z,26.28
2022-08-09T11:50:55.698Z,26.43
2022-08-09T11:53:58.093Z,26.40
2022-08-09T11:56:41.989Z,26.82
2022-08-09T11:59:33.550Z,27.24
2022-08-09T12:02:17.205Z,27.70
2022-08-09T12:04:58.196Z,27.87
2022-08-09T12:07:41.337Z,27.90
2022-08-09T12:10:39.590Z,28.05
2022-08-09T12:14:09.720Z,28.23
2022-08-09T12:16:03.595Z,28.54
2022-08-09T12:18:37.509Z,28.55
2022-08-09T12:21:28.655Z,28.53
2022-08-09T12:24:09.625Z,28.69
2022-08-09T12:26:44.663Z,28.85
2022-08-09T12:29:33.100Z,28.95
2022-08-09T12:32:11.585Z,28.88
2022-08-09T12:34:44.813Z,28.86
2022-08-09T12:37:23.832Z,28.79
2022-08-09T12:40:06.378Z,28.74
2022-08-09T12:42:44.239Z,28.75
2022-08-09T12:45:34.266Z,28.75
2022-08-09T12:48:11.051Z,28.72
2022-08-09T12:51:03.792Z,28.84
2022-08-09T12:53:40.952Z,28.99
2022-08-09T12:56:44.258Z,29.08
2022-08-09T12:59:14.347Z,29.21
2022-08-09T13:01:50.317Z,28.96
2022-08-09T13:04:37.580Z,28.92
2022-08-09T13:07:16.791Z,28.53
2022-08-09T13:10:05.102Z,28.28
2022-08-09T13:13:09.743Z,27.86
2022-08-09T13:15:58.616Z,27.77
2022-08-09T13:18:46.888Z,27.52
2022-08-09T13:22:36.718Z,27.35
2022-08-09T13:24:52.672Z,27.42
2022-08-09T13:27:24.282Z,27.46
2022-08-09T13:30:51.291Z,27.91
2022-08-09T13:32:56.779Z,27.91
2022-08-09T13:35:34.234Z,27.90
2022-08-09T13:38:17.807Z,27.58
2022-08-09T13:41:55.682Z,27.49
2022-08-09T13:43:53.855Z,27.66
2022-08-09T13:47:16.103Z,27.69
2022-08-09T13:49:18.330Z,27.89
2022-08-09T13:52:00.535Z,28.20
2022-08-09T13:54:33.108Z,28.37
2022-08-09T13:57:06.415Z,28.36
2022-08-09T13:59:42.056Z,28.65
2022-08-09T14:02:16.780Z,28.94
2022-08-09T14:04:59.665Z,29.20
2022-08-09T14:07:42.183Z,28.69
2022-08-09T14:10:17.287Z,28.84
2022-08-09T14:13:00.999Z,28.90
2022-08-09T14:16:08.923Z,29.24
2022-08-09T14:18:32.021Z,29.46
2022-08-09T14:21:04.077Z,29.57
2022-08-09T14:23:40.299Z,29.27
2022-08-09T14:26:18.796Z,29.32
2022-08-09T14:28:50.664Z,29.16
2022-08-09T14:31:23.700Z,28.87
2022-08-09T14:34:17.661Z,28.76
2022-08-09T14:37:06.075Z,28.51
2022-08-09T14:39:46.904Z,28.62
2022-08-09T14:42:32.026Z,28.20
2022-08-09T14:47:00.748Z,28.01
2022-08-09T14:48:03.523Z,27.73
2022-08-09T14:50:37.354Z,27.57
2022-08-09T14:53:13.729Z,27.54
2022-08-09T14:55:49.934Z,27.44
2022-08-09T14:58:22.415Z,27.53
2022-08-09T15:00:53.431Z,27.35
2022-08-09T15:03:29.997Z,27.35
2022-08-09T15:06:03.943Z,27.15
2022-08-09T15:08:36.203Z,26.97
2022-08-09T15:11:09.389Z,26.99
2022-08-09T15:13:56.354Z,26.90
2022-08-09T15:16:35.872Z,26.91
2022-08-09T15:19:18.169Z,26.95
2022-08-09T15:21:58.617Z,26.88
2022-08-09T15:24:33.750Z,26.70
2022-08-09T15:27:05.591Z,26.79
2022-08-09T15:30:58.435Z,26.78
2022-08-09T15:32:30.514Z,26.69
2022-08-09T15:35:18.705Z,26.62
2022-08-09T15:37:57.157Z,26.68
2022-08-09T15:40:44.754Z,26.76
2022-08-09T15:43:18.094Z,26.77
2022-08-09T15:46:07.528Z,26.78
2022-08-09T15:48:41.580Z,26.83
2022-08-09T15:52:04.014Z,26.95
2022-08-09T15:54:33.450Z,27.04
2022-08-09T15:57:14.440Z,27.05
2022-08-09T15:59:52.027Z,27.07
2022-08-09T16:02:27.058Z,26.96
2022-08-09T16:04:59.231Z,27.20
2022-08-09T16:07:38.930Z,27.62
2022-08-09T16:10:38.458Z,27.51
2022-08-09T16:13:05.122Z,27.23
2022-08-09T16:16:11.023Z,27.37
2022-08-09T16:18:49.939Z,27.91
2022-08-09T16:21:31.606Z,27.93
2022-08-09T16:24:19.955Z,27.61
2022-08-09T16:27:02.164Z,27.43
2022-08-09T16:29:49.996Z,27.09
2022-08-09T16:32:49.640Z,26.80
2022-08-09T16:35:55.744Z,26.48
2022-08-09T16:38:18.735Z,26.39
2022-08-09T16:40:50.744Z,26.15
2022-08-09T16:43:22.736Z,26.27
2022-08-09T16:45:55.593Z,26.24
2022-08-09T16:48:39.161Z,26.26
2022-08-09T16:51:20.034Z,26.17
2022-08-09T16:54:25.209Z,26.15
2022-08-09T16:56:49.339Z,25.96
2022-08-09T16:59:22.233Z,25.98
2022-08-09T17:01:54.119Z,25.86
2022-08-09T17:04:30.021Z,25.73
2022-08-09T17:08:40.760Z,25.66
2022-08-09T17:10:01.852Z,25.56
2022-08-09T17:12:36.720Z,25.46
2022-08-09T17:15:31.463Z,25.53
2022-08-09T17:18:02.542Z,25.50
2022-08-09T17:20:39.047Z,25.43
2022-08-09T17:23:16.097Z,25.42
2022-08-09T17:25:52.797Z,25.31
2022-08-09T17:28:25.028Z,25.32
2022-08-09T17:30:58.838Z,25.33
2022-08-09T17:33:32.267Z,25.33
2022-08-09T17:36:14.695Z,25.35
2022-08-09T17:38:52.747Z,25.29
2022-08-09T17:41:38.888Z,25.27
2022-08-09T17:44:42.291Z,25.19
2022-08-09T17:47:04.058Z,25.25
2022-08-09T17:49:36.454Z,25.24
2022-08-09T17:52:22.724Z,25.22
2022-08-09T17:54:55.632Z,25.24
2022-08-09T17:58:04.007Z,25.22
2022-08-09T18:00:21.263Z,25.19
2022-08-09T18:03:13.089Z,25.20
2022-08-09T18:05:45.017Z,25.13
2022-08-09T18:08:27.387Z,25.06
2022-08-09T18:11:02.210Z,25.07
2022-08-09T18:13:39.444Z,24.91
2022-08-09T18:16:16.406Z,24.92
2022-08-09T18:18:49.111Z,24.85
2022-08-09T18:21:23.721Z,24.78
2022-08-09T18:24:10.661Z,24.71
2022-08-09T18:26:46.859Z,24.64
2022-08-09T18:30:38.509Z,24.53
2022-08-09T18:32:12.782Z,24.50
2022-08-09T18:34:44.873Z,24.50
2022-08-09T18:37:49.153Z,24.44
2022-08-09T18:40:10.277Z,24.31
2022-08-09T18:42:46.732Z,24.33
2022-08-09T18:45:21.469Z,24.26
2022-08-09T18:47:53.798Z,24.24
2022-08-09T18:50:26.458Z,24.22
2022-08-09T18:53:06.402Z,24.20
2022-08-09T18:55:57.004Z,24.26
2022-08-09T18:58:38.970Z,24.05
2022-08-09T19:01:11.050Z,24.03
2022-08-09T19:03:54.649Z,24.10
2022-08-09T19:06:38.577Z,24.02
2022-08-09T19:09:13.462Z,24.02
2022-08-09T19:11:52.489Z,24.04
2022-08-09T19:14:29.167Z,23.93
2022-08-09T19:17:01.387Z,24.02
2022-08-09T19:19:37.035Z,23.94
2022-08-09T19:22:15.234Z,23.96
2022-08-09T19:25:11.918Z,23.98
2022-08-09T19:27:40.746Z,23.86
2022-08-09T19:30:22.608Z,23.83
2022-08-09T19:33:00.728Z,23.72
2022-08-09T19:35:57.199Z,23.80
2022-08-09T19:38:25.034Z,23.90
2022-08-09T19:41:00.476Z,23.87
2022-08-09T19:44:00.735Z,23.62
2022-08-09T19:46:34.960Z,23.55
2022-08-09T19:50:08.546Z,23.46
2022-08-09T19:52:00.779Z,23.34
2022-08-09T19:54:31.902Z,23.07
2022-08-09T19:57:04.384Z,23.05
2022-08-09T20:00:02.420Z,22.97
2022-08-09T20:04:26.332Z,22.85
2022-08-09T20:05:41.360Z,22.82
2022-08-09T20:08:24.981Z,22.89
2022-08-09T20:11:05.811Z,22.78
2022-08-09T20:13:36.973Z,22.96
2022-08-09T20:16:37.862Z,22.74
2022-08-09T20:19:42.209Z,22.72
2022-08-09T20:21:56.932Z,22.64
2022-08-09T20:24:34.122Z,22.50
2022-08-09T20:27:08.192Z,22.43
2022-08-09T20:29:41.444Z,22.48
2022-08-09T20:32:29.085Z,22.39
2022-08-09T20:35:05.801Z,22.45
2022-08-09T20:38:23.963Z,22.36
2022-08-09T20:40:31.638Z,22.32
2022-08-09T20:43:18.446Z,22.19
2022-08-09T20:46:00.839Z,22.17
2022-08-09T20:48:49.061Z,21.93
2022-08-09T20:51:26.821Z,22.20
2022-08-09T20:54:00.137Z,22.15
2022-08-09T20:56:35.546Z,22.10
2022-08-09T20:59:07.261Z,22.13
2022-08-09T21:01:49.818Z,22.20
2022-08-09T21:05:52.591Z,22.16
2022-08-09T21:07:16.530Z,22.10
2022-08-09T21:09:56.584Z,21.95
2022-08-09T21:12:32.955Z,22.12
2022-08-09T21:15:12.709Z,22.11
2022-08-09T21:18:22.018Z,22.00
2022-08-09T21:20:36.759Z,21.59
2022-08-09T21:23:13.113Z,21.60
2022-08-09T21:25:59.744Z,21.38
2022-08-09T21:28:36.105Z,21.53
2022-08-09T21:31:17.033Z,21.39
2022-08-09T21:33:53.133Z,21.34
2022-08-09T21:36:30.597Z,21.31
2022-08-09T21:39:04.221Z,21.47
2022-08-09T21:42:03.720Z,21.31
2022-08-09T21:44:34.138Z,21.05
2022-08-09T21:47:10.380Z,21.23
2022-08-09T21:49:50.875Z,21.34
2022-08-09T21:52:23.603Z,21.37
2022-08-09T21:54:59.706Z,21.38
2022-08-09T21:57:58.786Z,21.39
2022-08-09T22:00:34.396Z,21.30
2022-08-09T22:03:08.343Z,21.06
2022-08-09T22:05:52.248Z,21.08
2022-08-09T22:08:25.937Z,21.05
2022-08-09T22:11:48.869Z,21.05
2022-08-09T22:13:50.118Z,20.90
2022-08-09T22:16:23.515Z,20.50
2022-08-09T22:18:55.853Z,20.17
2022-08-09T22:21:49.591Z,20.20
2022-08-09T22:24:24.858Z,20.24
2022-08-09T22:26:57.344Z,20.40
2022-08-09T22:29:38.344Z,20.35
2022-08-09T22:32:29.881Z,20.28
2022-08-09T22:35:06.769Z,20.02
2022-08-09T22:38:06.550Z,19.96
2022-08-09T22:40:39.410Z,20.06
2022-08-09T22:44:00.682Z,20.05
2022-08-09T22:48:13.806Z,20.01
2022-08-09T22:49:09.697Z,19.79
2022-08-09T22:51:49.521Z,19.71
2022-08-09T22:54:21.631Z,19.72
2022-08-09T22:56:56.636Z,19.86
2022-08-09T22:59:55.859Z,19.72
2022-08-09T23:02:21.138Z,19.71
2022-08-09T23:04:57.064Z,19.74
2022-08-09T23:08:22.634Z,19.89
2022-08-09T23:10:43.694Z,19.71
2022-08-09T23:13:16.365Z,19.63
2022-08-09T23:16:03.340Z,19.72
2022-08-09T23:18:35.576Z,19.81
2022-08-09T23:21:07.776Z,19.99
2022-08-09T23:23:40.493Z,19.90
2022-08-09T23:26:10.614Z,20.03
2022-08-09T23:28:42.422Z,19.98
2022-08-09T23:31:14.083Z,19.76
2022-08-09T23:33:45.929Z,19.47
2022-08-09T23:36:17.554Z,19.40
2022-08-09T23:38:49.587Z,19.30
2022-08-09T23:41:28.719Z,19.30
2022-08-09T23:44:03.400Z,19.54
2022-08-09T23:46:36.052Z,19.62
2022-08-09T23:49:07.694Z,19.39
2022-08-09T23:51:39.545Z,19.49
2022-08-09T23:54:11.373Z,19.68
2022-08-09T23:56:54.778Z,19.43
2022-08-09T23:59:50.280Z,19.27
